createdAt,value
2019-04-16T00:03:24.005Z,611.31
2019-04-16T00:08:28.353Z,617.49
2019-04-16T00:13:23.933Z,604.71
2019-04-16T00:18:23.944Z,588.29
2019-04-16T00:23:28.412Z,601.46
2019-04-16T00:28:23.923Z,588.29
2019-04-16T00:33:23.908Z,592.96
2019-04-16T00:38:23.940Z,580.66
2019-04-16T00:43:23.908Z,568.38
2019-04-16T00:48:23.916Z,581.17
2019-04-16T00:53:23.899Z,578.16
2019-04-16T00:58:23.862Z,571.28
2019-04-16T01:03:23.942Z,548.43
2019-04-16T01:08:23.883Z,567.9
2019-04-16T01:13:25.284Z,555.69
2019-04-16T01:18:23.860Z,557.53
2019-04-16T01:23:23.892Z,557.07
2019-04-16T01:28:23.936Z,558.46
2019-04-16T01:33:23.857Z,550.68
2019-04-16T01:49:02.346Z,512.85
2019-04-16T01:54:02.636Z,539.62
2019-04-16T01:59:06.263Z,551.58
2019-04-16T02:04:02.242Z,555.23
2019-04-16T02:09:03.582Z,547.09
2019-04-16T02:14:02.217Z,545.76
2019-04-16T02:19:02.867Z,537.46
2019-04-16T02:24:02.227Z,526.51
2019-04-16T02:29:02.235Z,531.51
2019-04-16T02:34:02.662Z,525.28
2019-04-16T02:39:02.278Z,531.09
2019-04-16T02:44:02.336Z,531.09
2019-04-16T02:49:02.353Z,213.89
2019-04-16T02:54:02.321Z,144.93
2019-04-16T02:59:12.888Z,144.93
2019-04-16T03:04:02.184Z,144.93
2019-04-16T03:09:02.187Z,144.93
2019-04-16T03:14:02.227Z,144.93
2019-04-16T04:41:28.888Z,442.28
2019-04-16T04:46:28.890Z,468.83
2019-04-16T04:51:28.827Z,474.79
2019-04-16T04:56:28.873Z,456.1
2019-04-16T05:01:28.868Z,451.5
2019-04-16T05:06:28.820Z,457.03
2019-04-16T05:11:28.868Z,458.59
2019-04-16T05:16:34.301Z,454.55
2019-04-16T05:21:28.796Z,444.62
2019-04-16T05:26:28.815Z,459.84
2019-04-16T05:31:31.291Z,455.17
2019-04-16T05:36:28.808Z,462.05
2019-04-16T05:41:28.827Z,446.1
2019-04-16T05:46:28.823Z,452.11
2019-04-16T05:51:32.103Z,438.53
2019-04-16T05:56:29.514Z,438.82
2019-04-16T06:01:29.513Z,437.39
2019-04-16T06:06:32.486Z,433.44
2019-04-16T06:11:36.667Z,417.8
2019-04-16T06:16:31.271Z,421.47
2019-04-16T06:21:30.259Z,420.42
2019-04-16T06:26:30.258Z,421.74
2019-04-16T06:31:30.203Z,417.29
2019-04-16T06:36:30.239Z,413.69
2019-04-16T06:41:42.694Z,403.5
2019-04-16T06:46:30.228Z,404.96
2019-04-16T06:51:31.953Z,410.9
2019-04-16T06:56:30.278Z,405.69
2019-04-16T07:01:30.288Z,416.25
2019-04-16T07:06:30.392Z,406.92
2019-04-16T07:11:30.204Z,397.53
2019-04-16T07:21:30.384Z,401.09
2019-04-16T07:26:31.014Z,399.9
2019-04-16T07:31:34.945Z,381.72
2019-04-16T07:36:30.986Z,383.46
2019-04-16T07:41:30.988Z,388.79
2019-04-16T07:46:30.973Z,394.03
2019-04-16T07:51:36.659Z,384.12
2019-04-16T07:56:31.014Z,378.71
2019-04-16T08:01:30.947Z,386.77
2019-04-16T08:06:31.976Z,386.55
2019-04-16T08:11:31.951Z,400.14
2019-04-16T08:21:32.735Z,392.65
2019-04-16T08:26:32.690Z,381.94
2019-04-16T08:31:33.383Z,385.89
2019-04-16T08:36:32.703Z,388.79
2019-04-16T08:41:32.705Z,379.99
2019-04-16T08:46:32.708Z,370.37
2019-04-16T15:17:03.768Z,469.15
2019-04-16T15:22:14.881Z,487.89
2019-04-16T15:27:13.529Z,500.99
2019-04-16T15:32:13.593Z,513.24
2019-04-16T15:37:13.592Z,515.6
2019-04-16T15:42:17.765Z,511.67
2019-04-16T15:47:15.087Z,492.54
2019-04-16T15:52:13.676Z,481.25
2019-04-16T15:57:13.513Z,493.27
2019-04-16T16:07:18.337Z,498.76
2019-04-16T16:12:14.207Z,518.39
2019-04-16T16:17:14.234Z,503.62
2019-04-16T16:22:14.266Z,496.55
2019-04-16T16:27:14.285Z,491.82
2019-04-16T16:32:14.264Z,504.75
2019-04-16T16:37:14.262Z,501.74
2019-04-16T16:42:19.421Z,469.48
2019-04-16T16:47:19.428Z,502.86
2019-04-16T16:52:19.465Z,520.39
2019-04-16T16:57:19.421Z,500.99
2019-04-16T17:02:19.487Z,504.38
2019-04-16T17:07:19.398Z,479.88
2019-04-16T17:12:20.522Z,484.37
2019-04-16T17:17:21.320Z,486.13
2019-04-16T17:22:21.300Z,481.6
2019-04-16T17:27:21.293Z,481.94
2019-04-16T17:30:54.775Z,463.01
2019-04-16T17:35:52.861Z,496.18
2019-04-16T17:40:59.837Z,507.42
2019-04-16T17:45:55.213Z,503.24
2019-04-16T17:47:33.137Z,482.64
2019-04-16T17:52:27.873Z,487.18
2019-04-16T17:59:08.434Z,490.39
2019-04-16T18:04:11.663Z,496.55
2019-04-16T18:09:08.369Z,508.19
2019-04-16T18:14:11.689Z,505.13
2019-04-16T18:19:09.216Z,514.42
2019-04-16T18:24:09.080Z,519.59
2019-04-16T18:33:15.167Z,546.65
2019-04-16T18:50:38.272Z,571.28
2019-04-16T19:34:30.423Z,557.07
2019-04-16T19:39:30.386Z,570.31
2019-04-16T19:44:34.699Z,553.4
2019-04-16T19:49:30.432Z,550.23
2019-04-16T19:54:31.954Z,547.54
2019-04-16T19:59:30.400Z,545.76
2019-04-16T20:08:04.652Z,535.75
2019-04-16T20:13:05.286Z,541.36
2019-04-16T20:18:07.350Z,548.88
2019-04-16T20:23:05.117Z,555.69
2019-04-16T20:28:10.221Z,555.69
2019-04-16T20:33:05.092Z,562.2
2019-04-16T20:38:05.130Z,579.66
2019-04-16T20:43:07.049Z,580.66
2019-04-16T20:48:04.994Z,602.54
2019-04-16T20:53:08.466Z,598.78
2019-04-16T20:58:05.060Z,579.16
2019-04-16T21:03:04.968Z,583.18
2019-04-16T21:08:04.986Z,575.2
2019-04-16T21:13:05.030Z,580.66
2019-04-16T21:18:15.429Z,591.4
2019-04-16T21:23:05.742Z,608.54
2019-04-16T21:28:05.757Z,599.31
2019-04-16T21:33:06.083Z,623.8
2019-04-16T21:38:05.717Z,623.8
2019-04-16T21:43:08.770Z,620.34
2019-04-16T21:48:05.718Z,617.49
2019-04-16T21:53:05.776Z,617.49
2019-04-16T21:58:05.741Z,622.06
2019-04-16T22:03:10.808Z,614.66
2019-04-16T22:08:05.782Z,623.22
2019-04-16T22:13:06.172Z,651.63
2019-04-16T22:18:09.975Z,654.17
2019-04-16T22:23:10.154Z,660.6
2019-04-16T22:28:12.955Z,673.17
2019-04-16T22:33:07.645Z,667.82
2019-04-16T22:38:06.995Z,707.93
2019-04-16T22:43:09.111Z,709.43
2019-04-16T22:48:05.685Z,705.7
2019-04-16T22:53:05.732Z,735.04
2019-04-16T22:58:07.679Z,744.82
2019-04-16T23:03:09.826Z,759.03
2019-04-16T23:08:11.439Z,796.8
2019-04-16T23:13:05.636Z,809.27
2019-04-16T23:18:05.617Z,798.69
2019-04-16T23:23:05.673Z,798.69
2019-04-16T23:28:11.195Z,830.76
2019-04-16T23:33:05.639Z,839.05
2019-04-16T23:43:05.672Z,891.91
2019-04-16T23:48:06.334Z,910.63
2019-04-16T23:53:08.925Z,919.97
2019-04-16T23:58:06.541Z,898.46
